Time;durP1;ratioP1;P1;durP2;ratioP2;P2;SDS_P1;SDS_P2;PMS_P1;PMS_P2;Temp;Humidity;BMP_temperature;BMP_pressure;BME280_temperature;BME280_humidity;BME280_pressure;Samples;Min_cycle;Max_cycle;Signal;HPM_P1;HPM_P2
2022/03/23 00:01:06;;;;;;;5.88;3.33;;;;;;;19.49;39.21;102143.16;5041420;28;20090;-50
2022/03/23 00:03:32;;;;;;;3.97;2.95;;;;;;;19.48;39.17;102141.53;5045345;28;20050;-53
2022/03/23 00:05:58;;;;;;;4.50;2.65;;;;;;;19.47;39.04;102145.16;5044557;28;20029;-49
2022/03/23 00:08:23;;;;;;;5.68;2.25;;;;;;;19.47;39.12;102144.31;5042170;28;20550;-46
2022/03/23 00:10:49;;;;;;;5.63;2.95;;;;;;;19.46;39.04;102138.22;5045386;28;20507;-48
2022/03/23 00:13:14;;;;;;;4.38;2.92;;;;;;;19.45;39.15;102149.78;5043080;28;20049;-53
2022/03/23 00:15:40;;;;;;;5.13;3.33;;;;;;;19.45;38.82;102147.13;5042743;28;20653;-43
2022/03/23 00:18:06;;;;;;;4.47;3.10;;;;;;;19.46;38.67;102143.50;5046932;28;20071;-46
2022/03/23 00:20:33;;;;;;;6.28;3.13;;;;;;;19.46;38.52;102148.78;5043415;28;20083;-54
2022/03/23 00:23:00;;;;;;;5.72;2.88;;;;;;;19.46;38.56;102140.03;5043799;28;20621;-50
2022/03/23 00:25:26;;;;;;;5.82;3.30;;;;;;;19.44;38.35;102140.19;5044891;28;20028;-53
2022/03/23 00:27:52;;;;;;;7.47;3.42;;;;;;;19.44;38.18;102140.19;5044838;28;20214;-51
2022/03/23 00:30:18;;;;;;;4.40;2.83;;;;;;;19.44;38.20;102139.34;5041826;28;20036;-44
2022/03/23 00:32:43;;;;;;;6.25;3.28;;;;;;;19.43;38.27;102143.00;5045234;28;20031;-45
2022/03/23 00:35:09;;;;;;;4.43;2.92;;;;;;;19.41;38.25;102140.50;5050169;28;20167;-53
2022/03/23 00:37:35;;;;;;;5.82;3.25;;;;;;;19.41;38.19;102139.69;5051463;28;20033;-55
2022/03/23 00:40:01;;;;;;;3.95;2.85;;;;;;;19.39;38.20;102137.19;5048285;28;20039;-44
2022/03/23 00:42:26;;;;;;;5.55;3.17;;;;;;;19.39;38.10;102128.44;5048365;28;20028;-49
2022/03/23 00:44:52;;;;;;;4.75;3.10;;;;;;;19.38;38.23;102132.91;5045653;28;20167;-48
2022/03/23 00:47:18;;;;;;;5.20;3.30;;;;;;;19.38;37.91;102137.34;5045839;28;20044;-46
2022/03/23 00:49:43;;;;;;;7.50;2.83;;;;;;;19.37;38.24;102133.91;5048130;28;20036;-51
2022/03/23 00:52:11;;;;;;;4.05;3.00;;;;;;;19.35;38.05;102119.22;5048274;28;20032;-46
2022/03/23 00:54:37;;;;;;;4.75;2.95;;;;;;;19.34;38.05;102126.31;5045279;28;20021;-48
2022/03/23 00:57:07;;;;;;;4.13;2.83;;;;;;;19.33;38.05;102119.38;5047632;28;20049;-51
2022/03/23 00:59:33;;;;;;;5.22;3.40;;;;;;;19.33;38.16;102124.66;5044016;28;20094;-46
2022/03/23 01:01:59;;;;;;;4.90;3.10;;;;;;;19.33;38.03;102121.19;5045251;28;20040;-49
2022/03/23 01:04:25;;;;;;;4.88;3.05;;;;;;;19.31;38.23;102109.94;5049797;28;20120;-45
2022/03/23 01:06:54;;;;;;;4.50;3.25;;;;;;;19.30;38.04;102122.34;5045711;28;20091;-55
2022/03/23 01:09:23;;;;;;;4.10;3.50;;;;;;;19.30;38.23;102116.22;5045032;28;20519;-55
2022/03/23 01:11:54;;;;;;;4.30;2.92;;;;;;;19.29;38.24;102104.00;5047984;28;20512;-53
2022/03/23 01:14:22;;;;;;;5.90;3.35;;;;;;;19.29;38.28;102110.13;5047574;28;20128;-51
2022/03/23 01:16:49;;;;;;;5.22;3.00;;;;;;;19.29;38.21;102110.13;5046041;28;20029;-44
2022/03/23 01:19:15;;;;;;;5.20;3.47;;;;;;;19.28;38.33;102105.81;5062069;28;20387;-49
2022/03/23 01:21:40;;;;;;;4.78;3.83;;;;;;;19.27;38.32;102106.81;5046018;28;20029;-46
2022/03/23 01:24:06;;;;;;;3.65;3.03;;;;;;;19.29;38.27;102109.28;5047241;28;20032;-51
2022/03/23 01:26:32;;;;;;;4.28;3.33;;;;;;;19.27;38.22;102101.53;5049200;28;20063;-44
2022/03/23 01:28:58;;;;;;;3.83;2.92;;;;;;;19.28;37.96;102105.00;5044241;28;20591;-48
2022/03/23 01:31:24;;;;;;;3.85;2.40;;;;;;;19.27;37.93;102101.53;5047390;28;20025;-57
2022/03/23 01:33:50;;;;;;;4.93;3.40;;;;;;;19.26;37.72;102099.03;5048610;28;20036;-55
2022/03/23 01:36:15;;;;;;;6.72;3.53;;;;;;;19.26;38.04;102102.50;5045950;28;20029;-50
2022/03/23 01:38:41;;;;;;;5.93;3.05;;;;;;;19.25;37.98;102097.38;5044624;28;20667;-48
2022/03/23 01:41:06;;;;;;;6.38;3.30;;;;;;;19.25;37.94;102100.03;5049893;28;20021;-52
2022/03/23 01:43:33;;;;;;;3.47;2.70;;;;;;;19.25;37.90;102092.94;5042885;28;20098;-49
2022/03/23 01:46:00;;;;;;;3.72;2.45;;;;;;;19.26;37.89;102097.22;5046672;28;20044;-43
2022/03/23 01:48:25;;;;;;;3.65;3.03;;;;;;;19.25;37.93;102092.09;5045851;28;20041;-48
2022/03/23 01:50:51;;;;;;;3.83;2.60;;;;;;;19.25;37.88;102097.38;5047454;28;20051;-54
2022/03/23 01:53:16;;;;;;;4.63;2.75;;;;;;;19.24;37.95;102096.56;5048048;28;20575;-45
2022/03/23 01:55:42;;;;;;;4.03;3.22;;;;;;;19.24;37.87;102096.56;5048020;28;20778;-51
2022/03/23 01:58:07;;;;;;;3.92;2.92;;;;;;;19.25;37.80;102097.38;5041596;28;20040;-47
2022/03/23 02:00:34;;;;;;;4.13;3.05;;;;;;;19.24;37.88;102093.91;5043901;28;20083;-49
2022/03/23 02:02:59;;;;;;;4.57;3.58;;;;;;;19.25;37.77;102092.09;5045056;28;20037;-53
2022/03/23 02:05:25;;;;;;;4.07;3.28;;;;;;;19.23;37.77;102087.81;5047432;28;20036;-47
2022/03/23 02:07:51;;;;;;;5.50;3.15;;;;;;;19.23;37.75;102090.44;5045922;28;20033;-43
2022/03/23 02:12:51;;;;;;;5.15;3.13;;;;;;;19.22;37.66;102098.53;4966747;22;20060;-63
2022/03/23 02:15:17;;;;;;;3.83;3.17;;;;;;;19.19;37.58;102091.75;5068833;28;20032;-62
2022/03/23 02:17:44;;;;;;;4.72;3.17;;;;;;;19.20;37.66;102089.94;5070193;28;20028;-62
2022/03/23 02:20:11;;;;;;;3.88;3.25;;;;;;;19.20;37.53;102092.56;5068842;28;20124;-62
2022/03/23 02:22:36;;;;;;;5.10;3.20;;;;;;;19.20;37.48;102090.75;5069512;28;20040;-61
2022/03/23 02:25:04;;;;;;;5.18;3.17;;;;;;;19.19;37.51;102091.75;5066764;28;20028;-62
2022/03/23 02:27:29;;;;;;;4.43;3.50;;;;;;;19.19;37.53;102093.56;5067192;28;20449;-62
2022/03/23 02:29:57;;;;;;;4.95;3.33;;;;;;;19.19;37.54;102093.56;5068712;28;20044;-62
2022/03/23 02:32:24;;;;;;;7.05;3.05;;;;;;;19.18;37.56;102084.00;5069005;28;20116;-62
2022/03/23 02:34:49;;;;;;;4.32;3.22;;;;;;;19.17;37.56;102082.34;5069542;28;20463;-61
2022/03/23 02:37:16;;;;;;;5.35;3.30;;;;;;;19.16;37.43;102080.69;5068576;28;20017;-61
2022/03/23 02:39:42;;;;;;;4.35;3.35;;;;;;;19.16;37.42;102088.59;5069996;28;20036;-63
2022/03/23 02:42:08;;;;;;;3.50;2.67;;;;;;;19.15;37.32;102076.38;5066055;28;20032;-63
2022/03/23 02:44:34;;;;;;;4.60;2.63;;;;;;;19.15;37.21;102074.56;5067555;28;20446;-63
2022/03/23 02:46:59;;;;;;;3.38;2.70;;;;;;;19.14;37.28;102072.09;5069451;28;20064;-63
2022/03/23 02:49:25;;;;;;;3.90;3.03;;;;;;;19.13;37.22;102068.63;5068365;28;20576;-62
2022/03/23 02:51:51;;;;;;;4.40;2.78;;;;;;;19.13;37.37;102073.06;5069807;28;20029;-62
2022/03/23 03:03:33;;;;;;;3.83;2.70;;;;;;;19.04;36.91;102064.31;4977087;28;20137;-62
2022/03/23 03:05:58;;;;;;;3.95;2.70;;;;;;;19.05;36.96;102068.59;4986757;28;20042;-63
2022/03/23 03:11:08;;;;;;;3.58;2.70;;;;;;;19.04;36.71;102068.75;4985089;28;20124;-63
2022/03/23 03:13:34;;;;;;;3.28;2.22;;;;;;;19.03;36.93;102060.00;4968424;28;20180;-62
2022/03/23 03:16:02;;;;;;;3.10;2.13;;;;;;;19.04;36.84;102058.19;4966544;28;20043;-62
2022/03/23 03:18:31;;;;;;;3.83;2.80;;;;;;;19.03;36.98;102062.63;4975297;28;20541;-63
2022/03/23 03:20:56;;;;;;;4.97;3.40;;;;;;;19.03;36.85;102062.63;4984623;28;20041;-62
2022/03/23 03:23:22;;;;;;;4.65;2.97;;;;;;;19.03;36.96;102057.34;4986917;28;20030;-62
2022/03/23 03:25:47;;;;;;;4.00;3.30;;;;;;;19.02;36.73;102060.16;4975338;28;20605;-63
2022/03/23 03:28:12;;;;;;;3.58;2.58;;;;;;;19.03;36.84;102062.63;4974267;28;20101;-62
2022/03/23 03:30:38;;;;;;;5.50;3.33;;;;;;;19.03;37.08;102065.28;5001892;28;20404;-59
2022/03/23 03:33:03;;;;;;;3.90;2.70;;;;;;;19.04;37.18;102068.75;5068798;28;20161;-62
2022/03/23 03:35:29;;;;;;;4.63;3.17;;;;;;;19.03;37.00;102062.63;5067452;28;20028;-63
2022/03/23 03:37:54;;;;;;;4.00;3.03;;;;;;;19.02;36.97;102057.53;5067988;28;20035;-63
2022/03/23 03:40:20;;;;;;;3.47;2.45;;;;;;;19.03;36.97;102061.81;5066997;28;20429;-62
2022/03/23 03:42:45;;;;;;;4.22;3.25;;;;;;;19.01;37.08;102061.16;5067360;28;20028;-62
2022/03/23 03:45:11;;;;;;;4.20;2.97;;;;;;;19.02;37.05;102060.16;5067752;28;20082;-62
2022/03/23 03:47:36;;;;;;;3.08;2.78;;;;;;;19.01;37.08;102055.88;5068310;28;20033;-63
2022/03/23 03:50:03;;;;;;;4.57;2.10;;;;;;;19.00;37.10;102054.22;5067872;28;20040;-62
2022/03/23 03:52:28;;;;;;;2.90;2.47;;;;;;;19.00;36.88;102056.84;5067135;28;20024;-62
2022/03/23 03:54:54;;;;;;;4.18;2.22;;;;;;;18.99;37.00;102052.56;5067411;28;20503;-62
2022/03/23 03:57:19;;;;;;;4.82;3.15;;;;;;;18.99;37.00;102055.19;5066657;28;20032;-62
2022/03/23 03:59:44;;;;;;;4.10;2.75;;;;;;;18.99;36.85;102055.19;5066513;28;20056;-62
2022/03/23 04:02:10;;;;;;;4.20;3.28;;;;;;;19.00;36.97;102062.13;5068089;28;20028;-63
2022/03/23 04:04:35;;;;;;;5.53;2.72;;;;;;;18.99;36.61;102061.31;5066667;28;20031;-62
2022/03/23 04:07:02;;;;;;;3.35;2.70;;;;;;;18.99;36.80;102061.31;5066490;28;20037;-62
2022/03/23 04:09:27;;;;;;;3.30;1.85;;;;;;;18.99;36.70;102061.31;5067400;28;20166;-62
2022/03/23 04:11:52;;;;;;;3.80;2.25;;;;;;;19.00;36.73;102057.69;5066464;28;20066;-63
2022/03/23 04:14:18;;;;;;;4.25;2.92;;;;;;;18.99;36.76;102058.66;5067329;28;20256;-62
2022/03/23 04:16:44;;;;;;;4.53;2.58;;;;;;;18.99;36.77;102056.03;5065962;28;20036;-63
2022/03/23 04:19:09;;;;;;;4.80;3.22;;;;;;;18.99;36.67;102056.03;5067241;28;20111;-63
2022/03/23 04:21:35;;;;;;;3.08;2.40;;;;;;;19.00;36.59;102054.22;5067137;28;20475;-62
2022/03/23 04:24:00;;;;;;;3.40;2.72;;;;;;;19.00;36.46;102054.22;5067775;28;20032;-62
2022/03/23 04:26:26;;;;;;;3.20;2.25;;;;;;;18.98;36.43;102051.72;5066433;28;20029;-62
2022/03/23 04:28:51;;;;;;;4.22;2.55;;;;;;;19.00;36.47;102046.28;5067237;28;20040;-62
2022/03/23 04:31:17;;;;;;;3.85;2.42;;;;;;;18.98;36.37;102048.25;5066350;28;20031;-62
2022/03/23 04:33:43;;;;;;;4.35;2.47;;;;;;;18.99;36.41;102050.75;5068171;28;20036;-62
2022/03/23 04:36:09;;;;;;;4.35;2.20;;;;;;;18.99;36.39;102047.28;5067302;28;20025;-63
2022/03/23 04:38:35;;;;;;;3.53;2.53;;;;;;;18.99;36.55;102049.91;5067375;28;20035;-62
2022/03/23 04:41:02;;;;;;;3.72;2.72;;;;;;;18.97;36.17;102043.97;5068009;28;20039;-62
2022/03/23 04:43:28;;;;;;;2.65;2.05;;;;;;;18.97;36.55;102054.53;5066912;28;20028;-62
2022/03/23 04:45:53;;;;;;;3.42;2.30;;;;;;;18.96;36.55;102053.72;5065797;28;20051;-63
2022/03/23 04:48:19;;;;;;;3.80;2.72;;;;;;;18.97;36.49;102051.88;5069051;28;20119;-62
2022/03/23 04:50:46;;;;;;;2.90;2.33;;;;;;;18.96;36.67;102051.06;5068123;28;20032;-62
2022/03/23 04:53:12;;;;;;;3.00;2.70;;;;;;;18.95;36.55;102054.69;5066827;28;20104;-62
2022/03/23 04:55:38;;;;;;;5.00;2.72;;;;;;;18.95;36.65;102048.59;5067828;28;20119;-62
2022/03/23 04:58:04;;;;;;;3.35;2.33;;;;;;;18.94;36.65;102057.50;5065828;28;20056;-62
2022/03/23 05:00:29;;;;;;;4.22;2.20;;;;;;;18.94;36.72;102057.50;5065922;28;20082;-63
2022/03/23 05:02:55;;;;;;;4.38;2.97;;;;;;;18.93;36.71;102053.19;5067443;28;20037;-62
2022/03/23 05:05:20;;;;;;;5.30;2.60;;;;;;;18.92;36.62;102057.66;5066714;28;20085;-62
2022/03/23 05:07:46;;;;;;;4.53;2.55;;;;;;;18.91;36.60;102050.72;5066586;28;20353;-63
2022/03/23 05:10:13;;;;;;;3.13;2.10;;;;;;;18.90;36.64;102052.53;5067272;28;20029;-62
2022/03/23 05:12:43;;;;;;;3.40;2.03;;;;;;;18.88;36.57;102049.25;5065286;28;20065;-63
2022/03/23 05:15:10;;;;;;;3.88;2.28;;;;;;;18.88;36.77;102051.06;5067658;28;20044;-61
2022/03/23 05:17:37;;;;;;;5.80;2.75;;;;;;;18.86;36.91;102053.88;5064873;28;20059;-64
2022/03/23 05:20:04;;;;;;;8.80;2.33;;;;;;;18.87;36.94;102054.69;5070781;28;20124;-62
2022/03/23 05:22:30;;;;;;;3.92;2.10;;;;;;;18.85;37.20;102057.50;5068272;28;20111;-62
2022/03/23 05:24:56;;;;;;;7.65;2.78;;;;;;;18.86;37.27;102069.72;5070680;28;20136;-63
2022/03/23 05:27:21;;;;;;;3.22;2.38;;;;;;;18.85;37.28;102059.31;5069117;28;20433;-63
2022/03/23 05:29:47;;;;;;;4.25;2.40;;;;;;;18.85;37.07;102059.31;5070253;28;20428;-61
2022/03/23 05:32:16;;;;;;;3.65;2.53;;;;;;;18.84;36.99;102062.94;5068963;28;20032;-63
2022/03/23 05:34:45;;;;;;;15.43;3.28;;;;;;;18.84;38.12;102060.28;5070682;28;20032;-62
2022/03/23 05:37:11;;;;;;;12.82;2.40;;;;;;;18.83;38.39;102062.09;5069341;28;20480;-62
2022/03/23 05:39:38;;;;;;;5.50;2.72;;;;;;;18.84;37.85;102063.75;5069130;28;20074;-62
2022/03/23 05:42:03;;;;;;;12.32;3.45;;;;;;;18.86;38.18;102058.31;5063584;28;20059;-62
2022/03/23 05:44:29;;;;;;;9.20;3.90;;;;;;;18.94;39.64;102065.41;5065879;28;20508;-63
2022/03/23 05:46:55;;;;;;;4.63;2.45;;;;;;;18.96;40.18;102066.91;5068338;28;20035;-63
2022/03/23 05:49:21;;;;;;;4.95;2.25;;;;;;;18.95;39.99;102061.78;5068755;28;20044;-61
2022/03/23 05:51:46;;;;;;;7.00;2.70;;;;;;;18.94;39.41;102068.06;5069014;28;20337;-62
2022/03/23 05:54:11;;;;;;;4.65;2.50;;;;;;;18.92;38.93;102064.75;5069126;28;20025;-62
2022/03/23 05:56:37;;;;;;;6.10;2.25;;;;;;;18.89;38.63;102072.03;5069693;28;20037;-63
2022/03/23 05:59:03;;;;;;;4.13;1.75;;;;;;;18.89;38.42;102069.41;5064120;28;20040;-62
2022/03/23 06:01:28;;;;;;;2.47;1.55;;;;;;;18.89;38.59;102077.31;5066595;28;20057;-62
2022/03/23 06:03:53;;;;;;;6.82;2.17;;;;;;;18.87;38.70;102063.44;5069363;28;20111;-63
2022/03/23 06:06:19;;;;;;;4.65;2.38;;;;;;;18.87;38.57;102073.19;5065342;28;20044;-62
2022/03/23 06:08:45;;;;;;;3.83;1.83;;;;;;;18.86;38.37;102071.53;5068190;28;20029;-62
2022/03/23 06:11:10;;;;;;;6.13;1.95;;;;;;;18.85;38.08;102068.06;5068602;28;20056;-62
2022/03/23 06:13:36;;;;;;;4.38;2.22;;;;;;;18.84;37.90;102071.69;5066322;28;20803;-62
2022/03/23 06:16:02;;;;;;;7.65;2.22;;;;;;;18.84;37.53;102076.13;5068697;28;20431;-62
2022/03/23 06:18:28;;;;;;;2.85;2.28;;;;;;;18.83;37.45;102077.13;5064029;28;21986;-62
2022/03/23 06:20:53;;;;;;;3.17;1.70;;;;;;;18.83;37.21;102080.59;5068763;28;20033;-62
2022/03/23 06:23:18;;;;;;;7.28;2.78;;;;;;;18.84;37.25;102078.78;5067327;28;20032;-62
2022/03/23 06:25:44;;;;;;;4.78;2.55;;;;;;;18.84;37.24;102078.78;5068673;28;20021;-62
2022/03/23 06:28:09;;;;;;;5.03;2.33;;;;;;;18.84;36.98;102076.13;5067629;28;20135;-62
2022/03/23 06:30:35;;;;;;;6.25;2.38;;;;;;;18.83;37.09;102072.66;5067916;28;20427;-62
2022/03/23 06:33:01;;;;;;;4.43;2.50;;;;;;;18.84;37.19;102082.25;5067771;28;20418;-62
2022/03/23 06:35:29;;;;;;;2.80;1.95;;;;;;;18.84;37.15;102076.97;5068196;28;20060;-62
2022/03/23 06:37:54;;;;;;;3.85;2.22;;;;;;;18.85;37.25;102081.25;5068167;28;20044;-62
2022/03/23 06:40:21;;;;;;;3.47;2.13;;;;;;;18.86;37.39;102082.09;5068012;28;20024;-62
2022/03/23 06:42:47;;;;;;;3.05;2.20;;;;;;;18.86;37.33;102082.09;5067821;28;20157;-62
2022/03/23 06:45:12;;;;;;;4.18;2.30;;;;;;;18.86;37.09;102077.63;5069187;28;20142;-62
2022/03/23 06:47:37;;;;;;;3.67;2.05;;;;;;;18.86;37.35;102076.81;5066858;28;20028;-61
2022/03/23 06:50:03;;;;;;;3.30;2.45;;;;;;;18.86;37.30;102072.34;5067972;28;20064;-61
2022/03/23 06:52:29;;;;;;;5.93;1.85;;;;;;;18.86;37.23;102069.72;5084340;28;20040;-61
2022/03/23 06:54:54;;;;;;;2.20;1.88;;;;;;;18.86;37.30;102063.59;5066409;28;20028;-61
2022/03/23 06:57:20;;;;;;;2.70;1.95;;;;;;;18.86;37.24;102067.06;5065491;28;20029;-62
2022/03/23 06:59:45;;;;;;;17.60;2.05;;;;;;;18.85;37.20;102070.69;5068689;28;20059;-62
2022/03/23 07:02:11;;;;;;;3.65;1.77;;;;;;;18.85;37.18;102073.34;5065507;28;20567;-62
2022/03/23 07:04:36;;;;;;;4.63;1.67;;;;;;;18.85;37.25;102073.34;5065074;28;20085;-62
2022/03/23 07:07:02;;;;;;;4.45;1.98;;;;;;;18.85;37.12;102072.50;5068815;28;20035;-62
2022/03/23 07:09:38;;;;;;;2.50;1.90;;;;;;;18.85;37.20;102067.22;5067809;28;20035;-62
2022/03/23 07:12:06;;;;;;;4.72;2.03;;;;;;;18.82;37.31;102065.72;5066184;28;20143;-62
2022/03/23 07:14:33;;;;;;;3.28;2.25;;;;;;;18.84;37.32;102076.13;5064493;28;20028;-62
2022/03/23 07:16:58;;;;;;;2.05;1.45;;;;;;;18.82;37.34;102075.47;5067544;28;20035;-61
2022/03/23 07:19:24;;;;;;;4.55;2.13;;;;;;;18.82;37.50;102071.00;5067179;28;20040;-62
2022/03/23 07:21:50;;;;;;;2.65;2.03;;;;;;;18.82;37.35;102075.47;5067880;28;20033;-62
2022/03/23 07:24:16;;;;;;;4.47;1.77;;;;;;;18.81;37.39;102072.00;5067259;28;20071;-62
2022/03/23 07:26:41;;;;;;;2.63;2.13;;;;;;;18.81;37.40;102073.81;5067949;28;20083;-62
2022/03/23 07:29:07;;;;;;;2.58;1.60;;;;;;;18.80;37.20;102077.44;5066287;28;20037;-62
2022/03/23 07:31:33;;;;;;;3.50;1.85;;;;;;;18.80;37.32;102082.72;5068233;28;20056;-62
2022/03/23 07:33:59;;;;;;;2.75;1.35;;;;;;;18.80;37.35;102083.56;5065449;28;20028;-62
2022/03/23 07:36:24;;;;;;;3.33;1.90;;;;;;;18.78;37.33;102080.25;5067859;28;20035;-61
2022/03/23 07:38:51;;;;;;;3.45;1.73;;;;;;;18.78;37.32;102087.34;5065777;28;20426;-61
2022/03/23 07:41:16;;;;;;;2.47;1.38;;;;;;;18.77;37.36;102093.59;5062734;28;20264;-62
2022/03/23 07:43:42;;;;;;;2.40;1.40;;;;;;;18.74;37.25;102084.19;5068184;28;20039;-62
2022/03/23 07:46:08;;;;;;;2.42;1.30;;;;;;;18.73;37.27;102095.72;5061801;28;20021;-61
2022/03/23 07:48:34;;;;;;;3.80;2.05;;;;;;;18.73;37.25;102087.81;5063477;28;20035;-62
2022/03/23 07:50:59;;;;;;;5.07;2.33;;;;;;;18.73;37.37;102087.81;5062321;28;20036;-63
2022/03/23 07:53:25;;;;;;;5.13;2.00;;;;;;;18.74;37.71;102084.19;5061549;28;20047;-62
2022/03/23 07:55:50;;;;;;;6.63;2.72;;;;;;;18.77;37.93;102089.16;5067227;28;20024;-62
2022/03/23 07:58:15;;;;;;;4.43;2.53;;;;;;;18.78;38.73;102085.53;5063221;28;20025;-64
2022/03/23 08:00:43;;;;;;;5.53;2.50;;;;;;;18.80;39.23;102088.00;5060909;28;20072;-62
2022/03/23 08:03:09;;;;;;;8.50;2.55;;;;;;;18.80;39.32;102088.84;5066940;28;20033;-62
2022/03/23 08:05:40;;;;;;;2.95;2.35;;;;;;;18.77;39.40;102086.50;5063745;28;20109;-61
2022/03/23 08:08:09;;;;;;;5.53;2.83;;;;;;;18.76;39.51;102084.84;5067958;28;20434;-62
2022/03/23 08:10:35;;;;;;;2.88;1.90;;;;;;;18.77;39.78;102088.31;5065966;28;20642;-62
2022/03/23 08:13:02;;;;;;;4.38;1.70;;;;;;;18.77;39.72;102091.78;5067240;28;20075;-62
2022/03/23 08:15:29;;;;;;;2.35;1.40;;;;;;;18.77;39.75;102088.31;5067244;28;20101;-62
2022/03/23 08:17:56;;;;;;;2.72;1.60;;;;;;;18.77;39.67;102081.22;5066939;28;20032;-63
2022/03/23 08:20:33;;;;;;;3.17;1.80;;;;;;;18.78;39.73;102085.53;5066548;28;20373;-63
2022/03/23 08:23:07;;;;;;;7.20;1.70;;;;;;;18.74;39.84;102076.25;5048006;28;20021;-63
2022/03/23 08:25:34;;;;;;;4.80;1.50;;;;;;;18.77;40.53;102081.22;5047879;28;20029;-63
2022/03/23 08:28:00;;;;;;;2.03;1.10;;;;;;;18.75;40.73;102080.56;5063610;28;20035;-63
2022/03/23 08:30:26;;;;;;;4.35;2.10;;;;;;;18.75;40.43;102077.09;5066566;28;20867;-62
2022/03/23 08:32:53;;;;;;;4.20;1.98;;;;;;;18.74;40.15;102078.06;5062335;28;20048;-62
2022/03/23 08:35:19;;;;;;;4.00;1.83;;;;;;;18.75;40.25;102077.09;5065153;28;20033;-64
2022/03/23 08:37:45;;;;;;;5.35;2.35;;;;;;;18.75;40.17;102077.91;5065864;28;20032;-62
2022/03/23 08:40:11;;;;;;;8.25;2.10;;;;;;;18.74;39.86;102070.97;5065828;28;20389;-62
2022/03/23 08:42:36;;;;;;;4.40;2.17;;;;;;;18.73;39.35;102066.69;5065494;28;20414;-64
2022/03/23 08:45:04;;;;;;;3.53;2.10;;;;;;;18.73;38.96;102066.69;5065997;28;20029;-62
2022/03/23 08:47:29;;;;;;;4.38;2.33;;;;;;;18.73;38.63;102064.03;5062332;28;20094;-62
2022/03/23 08:49:58;;;;;;;3.63;2.35;;;;;;;18.73;38.21;102060.56;5064000;28;20033;-62
2022/03/23 08:52:24;;;;;;;4.90;2.35;;;;;;;18.74;37.77;102056.94;5062278;28;20044;-62
2022/03/23 08:54:50;;;;;;;2.97;1.75;;;;;;;18.73;37.39;102053.50;5068307;28;20036;-63
2022/03/23 08:57:15;;;;;;;4.05;2.33;;;;;;;18.73;37.42;102056.13;5050388;28;20036;-62
2022/03/23 08:59:41;;;;;;;5.78;1.90;;;;;;;18.73;37.48;102057.94;5069076;28;20143;-63
2022/03/23 09:02:07;;;;;;;4.63;2.08;;;;;;;18.73;37.48;102053.50;5065784;28;20037;-63
2022/03/23 09:04:32;;;;;;;3.00;1.73;;;;;;;18.74;37.19;102054.31;5069709;28;20121;-62
2022/03/23 09:06:58;;;;;;;14.82;3.75;;;;;;;18.74;37.13;102055.13;5068921;28;20032;-62
2022/03/23 09:09:23;;;;;;;6.95;2.65;;;;;;;18.73;37.12;102044.75;5067185;28;20392;-60
2022/03/23 09:11:49;;;;;;;8.77;1.95;;;;;;;18.74;37.16;102049.84;5067942;28;20048;-61
2022/03/23 09:14:14;;;;;;;3.40;1.90;;;;;;;18.75;37.14;102048.03;5064359;28;20048;-60
2022/03/23 09:16:40;;;;;;;6.25;2.22;;;;;;;18.75;37.11;102046.22;5064870;28;20047;-61
2022/03/23 09:19:06;;;;;;;4.45;2.13;;;;;;;18.75;37.07;102043.59;5070735;28;20042;-62
2022/03/23 09:21:32;;;;;;;3.30;2.20;;;;;;;18.76;37.15;102044.41;5067935;28;20537;-61
2022/03/23 09:23:57;;;;;;;5.30;2.25;;;;;;;18.74;37.01;102039.31;5061841;28;20032;-61
2022/03/23 09:26:24;;;;;;;6.60;1.88;;;;;;;18.74;37.19;102041.94;5050204;28;20029;-61
2022/03/23 09:28:51;;;;;;;3.50;2.08;;;;;;;18.76;37.22;102039.97;5050747;28;20552;-61
2022/03/23 09:31:17;;;;;;;6.82;2.33;;;;;;;18.74;37.11;102031.38;5054599;28;20059;-61
2022/03/23 09:33:44;;;;;;;3.40;1.85;;;;;;;18.75;37.11;102032.19;5071176;28;20028;-62
2022/03/23 09:38:53;;;;;;;3.45;1.92;;;;;;;18.73;37.38;102028.91;5071273;28;20532;-62
2022/03/23 09:41:19;;;;;;;4.88;2.60;;;;;;;18.72;37.36;102022.78;5069893;28;20369;-61
2022/03/23 09:43:45;;;;;;;3.25;1.77;;;;;;;18.73;37.24;102028.91;5068981;28;20060;-61
2022/03/23 09:46:11;;;;;;;3.78;1.60;;;;;;;18.72;37.16;102027.25;5069608;28;20191;-61
2022/03/23 09:48:37;;;;;;;1.88;1.20;;;;;;;18.69;37.19;102025.75;5070806;28;20033;-62
2022/03/23 09:51:02;;;;;;;4.60;2.13;;;;;;;18.69;37.12;102012.53;5070334;28;20146;-62
2022/03/23 09:53:28;;;;;;;2.65;1.58;;;;;;;18.69;37.16;102014.34;5070921;28;20568;-61
2022/03/23 09:55:54;;;;;;;2.10;1.45;;;;;;;18.68;37.15;102007.44;5070831;28;20071;-61
2022/03/23 09:58:20;;;;;;;3.50;1.42;;;;;;;18.68;37.26;102008.25;5069609;28;20088;-61
2022/03/23 10:00:45;;;;;;;2.10;1.50;;;;;;;18.67;37.34;102009.25;5070519;28;20248;-62
2022/03/23 10:03:11;;;;;;;2.63;1.70;;;;;;;18.68;37.32;102008.25;5070546;28;20431;-61
2022/03/23 10:06:05;;;;;;;1.65;1.30;;;;;;;18.64;37.11;102006.91;5069433;28;20029;-62
2022/03/23 10:08:52;;;;;;;2.72;1.30;;;;;;;18.62;37.29;102006.25;5068860;28;20363;-62
2022/03/23 10:11:55;;;;;;;3.67;1.50;;;;;;;18.61;37.31;101998.50;5065607;28;20036;-62
2022/03/23 10:14:39;;;;;;;2.53;1.40;;;;;;;18.62;37.42;101994.88;5066359;28;20097;-62
2022/03/23 10:17:32;;;;;;;4.82;2.00;;;;;;;18.61;37.65;101996.69;5065920;28;20072;-62
2022/03/23 10:20:00;;;;;;;4.60;2.08;;;;;;;18.63;37.98;101986.78;5063570;28;22346;-63
2022/03/23 10:22:27;;;;;;;7.53;1.95;;;;;;;18.64;37.76;101982.34;5066713;28;20120;-63
2022/03/23 10:24:53;;;;;;;4.45;1.83;;;;;;;18.64;38.05;101983.16;5063865;28;20506;-62
2022/03/23 10:27:20;;;;;;;4.35;1.67;;;;;;;18.65;37.99;101984.81;5048995;28;20036;-62
2022/03/23 10:29:54;;;;;;;4.50;1.77;;;;;;;18.65;37.58;101981.34;5066991;28;20484;-63
2022/03/23 10:32:23;;;;;;;3.92;1.88;;;;;;;18.65;37.50;101963.69;5065018;28;20384;-62
2022/03/23 10:34:54;;;;;;;3.40;1.40;;;;;;;18.64;37.65;101966.50;5060931;28;20485;-61
2022/03/23 10:37:33;;;;;;;5.00;1.70;;;;;;;18.64;37.57;101969.13;5068582;28;20029;-62
2022/03/23 10:40:02;;;;;;;3.53;1.90;;;;;;;18.65;37.69;101968.16;5069292;28;20051;-63
2022/03/23 10:42:35;;;;;;;4.53;2.10;;;;;;;18.64;37.57;101961.22;5063930;28;20051;-63
2022/03/23 10:45:08;;;;;;;5.45;1.90;;;;;;;18.62;36.99;101958.75;5061464;28;20112;-63
2022/03/23 10:47:34;;;;;;;5.35;2.30;;;;;;;18.62;36.54;101953.47;5066996;28;20043;-62
2022/03/23 10:50:15;;;;;;;3.20;2.33;;;;;;;18.61;36.47;101946.53;5066486;28;20036;-62
2022/03/23 10:53:03;;;;;;;3.97;2.55;;;;;;;18.56;34.65;101941.69;5057807;28;20035;-62
2022/03/23 10:55:36;;;;;;;3.58;3.03;;;;;;;18.57;35.50;101939.88;5063031;28;20036;-64
2022/03/23 10:58:01;;;;;;;3.10;2.50;;;;;;;18.59;35.64;101948.47;5062651;28;20039;-62
2022/03/23 11:00:29;;;;;;;5.43;3.95;;;;;;;18.59;35.60;101940.53;5068141;28;20032;-62
2022/03/23 11:02:55;;;;;;;5.38;2.78;;;;;;;18.59;35.54;101937.91;5069530;28;20040;-62
2022/03/23 11:05:55;;;;;;;6.15;2.88;;;;;;;18.56;35.04;101935.59;5068625;28;20024;-63
2022/03/23 11:08:25;;;;;;;3.58;2.65;;;;;;;18.56;35.25;101930.31;5044856;28;20045;-63
2022/03/23 11:16:38;;;;;;;3.88;3.22;;;;;;;18.59;35.28;101916.78;5057607;28;20068;-64
2022/03/23 11:19:12;;;;;;;8.43;3.75;;;;;;;18.58;35.58;101913.31;5062651;28;20145;-62
2022/03/23 11:21:58;;;;;;;6.53;3.50;;;;;;;18.62;36.21;101913.03;5066165;28;20032;-61
2022/03/23 11:24:25;;;;;;;9.20;3.92;;;;;;;18.70;37.17;101903.31;5066580;28;20039;-62
2022/03/23 11:26:52;;;;;;;9.13;3.72;;;;;;;18.76;37.87;101905.31;5064467;28;20533;-62
2022/03/23 11:29:18;;;;;;;10.70;4.25;;;;;;;18.77;39.51;101899.03;5066657;28;20063;-63
2022/03/23 11:31:47;;;;;;;5.82;3.70;;;;;;;18.79;40.76;101894.44;5063223;28;20575;-62
2022/03/23 11:34:18;;;;;;;11.20;4.63;;;;;;;18.80;41.69;101888.16;5062184;28;20028;-63
2022/03/23 11:36:47;;;;;;;6.40;3.50;;;;;;;18.81;40.73;101884.53;5062551;28;20459;-62
2022/03/23 11:39:13;;;;;;;6.50;3.53;;;;;;;18.79;39.46;101881.22;5064604;28;20083;-62
2022/03/23 11:41:41;;;;;;;12.13;2.88;;;;;;;18.79;38.63;101883.88;5066915;28;20176;-62
2022/03/23 11:44:07;;;;;;;14.50;2.75;;;;;;;18.77;37.85;101871.81;5065796;28;20472;-62
2022/03/23 11:46:32;;;;;;;5.40;2.50;;;;;;;18.76;37.66;101876.28;5063505;28;20025;-63